sensor_id;sensor_type;location;lat;lon;timestamp;temperature;humidity
53053;DHT22;38934;52.690;6.184;2022-07-15T00:00:25;13.30;99.90
53053;DHT22;38934;52.690;6.184;2022-07-15T00:02:50;13.30;99.90
53053;DHT22;38934;52.690;6.184;2022-07-15T00:05:18;13.30;99.90
53053;DHT22;38934;52.690;6.184;2022-07-15T00:07:44;13.30;99.90
53053;DHT22;38934;52.690;6.184;2022-07-15T00:10:09;13.20;99.90
53053;DHT22;38934;52.690;6.184;2022-07-15T00:12:46;13.20;99.90
53053;DHT22;38934;52.690;6.184;2022-07-15T00:15:12;13.20;99.90
53053;DHT22;38934;52.690;6.184;2022-07-15T00:17:39;13.20;99.90
53053;DHT22;38934;52.690;6.184;2022-07-15T00:20:05;13.20;99.90
53053;DHT22;38934;52.690;6.184;2022-07-15T00:22:31;13.20;99.90
53053;DHT22;38934;52.690;6.184;2022-07-15T00:24:57;13.20;99.90
53053;DHT22;38934;52.690;6.184;2022-07-15T00:27:23;13.20;99.90
53053;DHT22;38934;52.690;6.184;2022-07-15T00:29:48;13.20;99.90
53053;DHT22;38934;52.690;6.184;2022-07-15T00:32:14;13.30;99.90
53053;DHT22;38934;52.690;6.184;2022-07-15T00:34:40;13.30;99.90
53053;DHT22;38934;52.690;6.184;2022-07-15T00:37:05;13.40;99.90
53053;DHT22;38934;52.690;6.184;2022-07-15T00:39:31;13.40;99.90
53053;DHT22;38934;52.690;6.184;2022-07-15T00:41:56;13.50;99.90
53053;DHT22;38934;52.690;6.184;2022-07-15T00:44:22;13.50;99.90
53053;DHT22;38934;52.690;6.184;2022-07-15T00:46:48;13.50;99.90
53053;DHT22;38934;52.690;6.184;2022-07-15T00:49:13;13.50;99.90
53053;DHT22;38934;52.690;6.184;2022-07-15T00:51:44;13.50;99.90
53053;DHT22;38934;52.690;6.184;2022-07-15T00:54:12;13.60;99.90
53053;DHT22;38934;52.690;6.184;2022-07-15T00:56:48;13.60;99.90
53053;DHT22;38934;52.690;6.184;2022-07-15T00:59:15;13.80;99.90
53053;DHT22;38934;52.690;6.184;2022-07-15T01:01:43;13.70;99.90
53053;DHT22;38934;52.690;6.184;2022-07-15T01:04:10;13.80;99.90
53053;DHT22;38934;52.690;6.184;2022-07-15T01:06:38;13.80;99.90
53053;DHT22;38934;52.690;6.184;2022-07-15T01:09:04;13.90;99.90
53053;DHT22;38934;52.690;6.184;2022-07-15T01:11:30;13.90;99.90
53053;DHT22;38934;52.690;6.184;2022-07-15T01:13:57;14.00;99.90
53053;DHT22;38934;52.690;6.184;2022-07-15T01:16:24;14.00;99.90
53053;DHT22;38934;52.690;6.184;2022-07-15T01:18:49;14.00;99.90
53053;DHT22;38934;52.690;6.184;2022-07-15T01:21:15;14.10;99.90
53053;DHT22;38934;52.690;6.184;2022-07-15T01:23:41;14.20;99.90
53053;DHT22;38934;52.690;6.184;2022-07-15T01:26:09;14.20;99.90
53053;DHT22;38934;52.690;6.184;2022-07-15T01:28:37;14.20;99.90
53053;DHT22;38934;52.690;6.184;2022-07-15T01:31:03;14.30;99.90
53053;DHT22;38934;52.690;6.184;2022-07-15T01:33:29;14.30;99.90
53053;DHT22;38934;52.690;6.184;2022-07-15T01:35:55;14.30;99.90
53053;DHT22;38934;52.690;6.184;2022-07-15T01:38:21;14.30;99.90
53053;DHT22;38934;52.690;6.184;2022-07-15T01:40:46;14.30;99.90
53053;DHT22;38934;52.690;6.184;2022-07-15T01:43:12;14.30;99.90
53053;DHT22;38934;52.690;6.184;2022-07-15T01:45:42;14.30;99.90
53053;DHT22;38934;52.690;6.184;2022-07-15T01:48:08;14.30;99.90
53053;DHT22;38934;52.690;6.184;2022-07-15T01:50:53;14.30;99.90
53053;DHT22;38934;52.690;6.184;2022-07-15T01:53:19;14.30;99.90
53053;DHT22;38934;52.690;6.184;2022-07-15T01:55:44;14.30;99.90
53053;DHT22;38934;52.690;6.184;2022-07-15T01:58:10;14.30;99.90
53053;DHT22;38934;52.690;6.184;2022-07-15T02:00:35;14.30;99.90
53053;DHT22;38934;52.690;6.184;2022-07-15T02:03:01;14.40;99.90
53053;DHT22;38934;52.690;6.184;2022-07-15T02:05:26;14.30;99.90
53053;DHT22;38934;52.690;6.184;2022-07-15T02:07:53;14.30;99.90
53053;DHT22;38934;52.690;6.184;2022-07-15T02:10:19;14.30;99.90
53053;DHT22;38934;52.690;6.184;2022-07-15T02:12:44;14.30;99.90
53053;DHT22;38934;52.690;6.184;2022-07-15T02:15:10;14.20;99.90
53053;DHT22;38934;52.690;6.184;2022-07-15T02:17:36;14.20;99.90
53053;DHT22;38934;52.690;6.184;2022-07-15T02:20:01;14.20;99.90
53053;DHT22;38934;52.690;6.184;2022-07-15T02:22:27;14.20;99.90
53053;DHT22;38934;52.690;6.184;2022-07-15T02:24:53;14.10;99.90
53053;DHT22;38934;52.690;6.184;2022-07-15T02:27:19;14.10;99.90
53053;DHT22;38934;52.690;6.184;2022-07-15T02:29:46;14.00;99.90
53053;DHT22;38934;52.690;6.184;2022-07-15T02:32:12;14.00;99.90
53053;DHT22;38934;52.690;6.184;2022-07-15T02:34:37;14.00;99.90
53053;DHT22;38934;52.690;6.184;2022-07-15T02:37:03;13.90;99.90
53053;DHT22;38934;52.690;6.184;2022-07-15T02:39:28;13.90;99.90
53053;DHT22;38934;52.690;6.184;2022-07-15T02:41:54;13.80;99.90
53053;DHT22;38934;52.690;6.184;2022-07-15T02:44:19;13.70;99.90
53053;DHT22;38934;52.690;6.184;2022-07-15T02:46:45;13.70;99.90
53053;DHT22;38934;52.690;6.184;2022-07-15T02:49:11;13.70;99.90
53053;DHT22;38934;52.690;6.184;2022-07-15T02:51:37;13.60;99.90
53053;DHT22;38934;52.690;6.184;2022-07-15T02:54:02;13.50;99.90
53053;DHT22;38934;52.690;6.184;2022-07-15T02:56:28;13.50;99.90
53053;DHT22;38934;52.690;6.184;2022-07-15T02:58:53;13.50;99.90
53053;DHT22;38934;52.690;6.184;2022-07-15T03:01:19;13.40;99.90
53053;DHT22;38934;52.690;6.184;2022-07-15T03:03:45;13.40;99.90
53053;DHT22;38934;52.690;6.184;2022-07-15T03:06:10;13.40;99.90
53053;DHT22;38934;52.690;6.184;2022-07-15T03:08:36;13.30;99.90
53053;DHT22;38934;52.690;6.184;2022-07-15T03:11:02;13.30;99.90
53053;DHT22;38934;52.690;6.184;2022-07-15T03:13:28;13.30;99.90
53053;DHT22;38934;52.690;6.184;2022-07-15T03:15:54;13.20;99.90
53053;DHT22;38934;52.690;6.184;2022-07-15T03:18:20;13.20;99.90
53053;DHT22;38934;52.690;6.184;2022-07-15T03:20:45;13.20;99.90
53053;DHT22;38934;52.690;6.184;2022-07-15T03:23:12;13.20;99.90
53053;DHT22;38934;52.690;6.184;2022-07-15T03:25:38;13.10;99.90
53053;DHT22;38934;52.690;6.184;2022-07-15T03:28:03;13.20;99.90
53053;DHT22;38934;52.690;6.184;2022-07-15T03:30:29;13.10;99.90
53053;DHT22;38934;52.690;6.184;2022-07-15T03:32:55;13.00;99.90
53053;DHT22;38934;52.690;6.184;2022-07-15T03:35:20;13.00;99.90
53053;DHT22;38934;52.690;6.184;2022-07-15T03:37:46;13.00;99.90
53053;DHT22;38934;52.690;6.184;2022-07-15T03:40:12;12.90;99.90
53053;DHT22;38934;52.690;6.184;2022-07-15T03:42:37;12.90;99.90
53053;DHT22;38934;52.690;6.184;2022-07-15T03:45:04;12.90;99.90
53053;DHT22;38934;52.690;6.184;2022-07-15T03:47:29;12.90;99.90
53053;DHT22;38934;52.690;6.184;2022-07-15T03:49:55;12.90;99.90
53053;DHT22;38934;52.690;6.184;2022-07-15T03:52:21;12.90;99.90
53053;DHT22;38934;52.690;6.184;2022-07-15T03:54:46;13.30;99.90
53053;DHT22;38934;52.690;6.184;2022-07-15T03:57:12;12.90;99.90
53053;DHT22;38934;52.690;6.184;2022-07-15T03:59:37;12.90;99.90
53053;DHT22;38934;52.690;6.184;2022-07-15T04:02:03;12.90;99.90
53053;DHT22;38934;52.690;6.184;2022-07-15T04:04:28;12.90;99.90
53053;DHT22;38934;52.690;6.184;2022-07-15T04:06:54;12.90;99.90
53053;DHT22;38934;52.690;6.184;2022-07-15T04:09:19;13.10;99.90
53053;DHT22;38934;52.690;6.184;2022-07-15T04:11:46;12.90;99.90
53053;DHT22;38934;52.690;6.184;2022-07-15T04:14:12;12.90;99.90
53053;DHT22;38934;52.690;6.184;2022-07-15T04:16:38;12.90;99.90
53053;DHT22;38934;52.690;6.184;2022-07-15T04:19:04;12.90;99.90
53053;DHT22;38934;52.690;6.184;2022-07-15T04:21:30;12.90;99.90
53053;DHT22;38934;52.690;6.184;2022-07-15T04:23:56;12.90;99.90
53053;DHT22;38934;52.690;6.184;2022-07-15T04:26:22;12.90;99.90
53053;DHT22;38934;52.690;6.184;2022-07-15T04:28:48;12.90;99.90
53053;DHT22;38934;52.690;6.184;2022-07-15T04:31:13;13.00;99.90
53053;DHT22;38934;52.690;6.184;2022-07-15T04:33:39;12.90;99.90
53053;DHT22;38934;52.690;6.184;2022-07-15T04:36:04;12.90;99.90
53053;DHT22;38934;52.690;6.184;2022-07-15T04:38:30;12.90;99.90
53053;DHT22;38934;52.690;6.184;2022-07-15T04:40:56;13.00;99.90
53053;DHT22;38934;52.690;6.184;2022-07-15T04:43:21;13.10;99.90
53053;DHT22;38934;52.690;6.184;2022-07-15T04:45:47;13.00;99.90
53053;DHT22;38934;52.690;6.184;2022-07-15T04:48:13;13.00;99.90
53053;DHT22;38934;52.690;6.184;2022-07-15T04:50:57;13.10;99.90
53053;DHT22;38934;52.690;6.184;2022-07-15T04:53:23;13.10;99.90
53053;DHT22;38934;52.690;6.184;2022-07-15T04:55:48;13.20;99.90
53053;DHT22;38934;52.690;6.184;2022-07-15T04:58:14;13.20;99.90
53053;DHT22;38934;52.690;6.184;2022-07-15T05:00:42;13.30;99.90
53053;DHT22;38934;52.690;6.184;2022-07-15T05:03:08;13.60;99.90
53053;DHT22;38934;52.690;6.184;2022-07-15T05:05:33;14.20;99.90
53053;DHT22;38934;52.690;6.184;2022-07-15T05:07:59;15.20;99.90
53053;DHT22;38934;52.690;6.184;2022-07-15T05:10:25;16.40;99.90
53053;DHT22;38934;52.690;6.184;2022-07-15T05:12:51;16.90;99.90
53053;DHT22;38934;52.690;6.184;2022-07-15T05:15:20;17.50;99.90
53053;DHT22;38934;52.690;6.184;2022-07-15T05:17:45;18.70;99.90
53053;DHT22;38934;52.690;6.184;2022-07-15T05:20:11;19.90;99.90
53053;DHT22;38934;52.690;6.184;2022-07-15T05:22:36;20.20;99.90
53053;DHT22;38934;52.690;6.184;2022-07-15T05:25:02;19.50;99.90
53053;DHT22;38934;52.690;6.184;2022-07-15T05:27:28;18.80;99.90
53053;DHT22;38934;52.690;6.184;2022-07-15T05:29:54;18.10;99.90
53053;DHT22;38934;52.690;6.184;2022-07-15T05:32:19;17.60;99.90
53053;DHT22;38934;52.690;6.184;2022-07-15T05:34:45;17.10;99.90
53053;DHT22;38934;52.690;6.184;2022-07-15T05:37:11;16.60;99.90
53053;DHT22;38934;52.690;6.184;2022-07-15T05:39:37;16.30;99.90
53053;DHT22;38934;52.690;6.184;2022-07-15T05:42:22;16.00;99.90
53053;DHT22;38934;52.690;6.184;2022-07-15T05:44:48;15.80;99.90
53053;DHT22;38934;52.690;6.184;2022-07-15T05:47:14;15.70;99.90
53053;DHT22;38934;52.690;6.184;2022-07-15T05:49:40;15.60;99.90
53053;DHT22;38934;52.690;6.184;2022-07-15T05:52:07;15.60;99.90
53053;DHT22;38934;52.690;6.184;2022-07-15T05:54:33;15.60;99.90
53053;DHT22;38934;52.690;6.184;2022-07-15T05:56:58;15.60;99.90
53053;DHT22;38934;52.690;6.184;2022-07-15T05:59:24;15.90;99.90
53053;DHT22;38934;52.690;6.184;2022-07-15T06:01:49;17.20;99.90
53053;DHT22;38934;52.690;6.184;2022-07-15T06:04:15;19.00;99.90
53053;DHT22;38934;52.690;6.184;2022-07-15T06:06:40;20.60;99.90
53053;DHT22;38934;52.690;6.184;2022-07-15T06:09:06;22.10;99.90
53053;DHT22;38934;52.690;6.184;2022-07-15T06:11:32;23.10;99.90
53053;DHT22;38934;52.690;6.184;2022-07-15T06:13:59;23.90;99.90
53053;DHT22;38934;52.690;6.184;2022-07-15T06:16:25;24.50;99.80
53053;DHT22;38934;52.690;6.184;2022-07-15T06:18:51;24.70;94.90
53053;DHT22;38934;52.690;6.184;2022-07-15T06:21:16;25.40;92.50
53053;DHT22;38934;52.690;6.184;2022-07-15T06:23:43;25.90;88.70
53053;DHT22;38934;52.690;6.184;2022-07-15T06:26:08;26.20;84.50
53053;DHT22;38934;52.690;6.184;2022-07-15T06:28:35;25.50;80.00
53053;DHT22;38934;52.690;6.184;2022-07-15T06:31:00;24.20;78.20
53053;DHT22;38934;52.690;6.184;2022-07-15T06:33:27;22.90;79.10
53053;DHT22;38934;52.690;6.184;2022-07-15T06:35:53;21.80;81.00
53053;DHT22;38934;52.690;6.184;2022-07-15T06:38:20;20.90;84.00
53053;DHT22;38934;52.690;6.184;2022-07-15T06:40:46;20.20;88.90
53053;DHT22;38934;52.690;6.184;2022-07-15T06:43:12;19.60;91.20
53053;DHT22;38934;52.690;6.184;2022-07-15T06:45:37;19.10;95.20
53053;DHT22;38934;52.690;6.184;2022-07-15T06:48:03;19.30;99.90
53053;DHT22;38934;52.690;6.184;2022-07-15T06:50:29;20.70;99.90
53053;DHT22;38934;52.690;6.184;2022-07-15T06:52:54;22.00;96.20
53053;DHT22;38934;52.690;6.184;2022-07-15T06:55:20;23.00;90.80
53053;DHT22;38934;52.690;6.184;2022-07-15T06:57:46;23.70;86.90
53053;DHT22;38934;52.690;6.184;2022-07-15T07:00:12;24.70;83.70
53053;DHT22;38934;52.690;6.184;2022-07-15T07:02:40;25.00;77.60
53053;DHT22;38934;52.690;6.184;2022-07-15T07:05:06;25.20;74.50
53053;DHT22;38934;52.690;6.184;2022-07-15T07:07:32;25.50;72.70
53053;DHT22;38934;52.690;6.184;2022-07-15T07:09:58;25.70;69.90
53053;DHT22;38934;52.690;6.184;2022-07-15T07:12:24;25.80;67.60
53053;DHT22;38934;52.690;6.184;2022-07-15T07:14:49;26.20;66.70
53053;DHT22;38934;52.690;6.184;2022-07-15T07:17:15;26.00;64.70
53053;DHT22;38934;52.690;6.184;2022-07-15T07:19:40;26.20;64.00
53053;DHT22;38934;52.690;6.184;2022-07-15T07:22:06;26.30;63.20
53053;DHT22;38934;52.690;6.184;2022-07-15T07:24:31;26.50;63.00
53053;DHT22;38934;52.690;6.184;2022-07-15T07:26:57;26.60;61.70
53053;DHT22;38934;52.690;6.184;2022-07-15T07:29:23;26.80;60.90
53053;DHT22;38934;52.690;6.184;2022-07-15T07:31:52;26.90;59.40
53053;DHT22;38934;52.690;6.184;2022-07-15T07:34:18;26.70;58.10
53053;DHT22;38934;52.690;6.184;2022-07-15T07:36:45;26.70;59.30
53053;DHT22;38934;52.690;6.184;2022-07-15T07:39:12;26.80;59.00
53053;DHT22;38934;52.690;6.184;2022-07-15T07:41:39;27.00;59.50
53053;DHT22;38934;52.690;6.184;2022-07-15T07:44:04;27.10;58.80
53053;DHT22;38934;52.690;6.184;2022-07-15T07:46:31;27.20;57.60
53053;DHT22;38934;52.690;6.184;2022-07-15T07:48:56;27.30;57.60
53053;DHT22;38934;52.690;6.184;2022-07-15T07:51:22;27.20;56.80
53053;DHT22;38934;52.690;6.184;2022-07-15T07:53:47;27.30;57.00
53053;DHT22;38934;52.690;6.184;2022-07-15T07:56:13;27.20;56.90
53053;DHT22;38934;52.690;6.184;2022-07-15T07:58:39;27.20;56.60
53053;DHT22;38934;52.690;6.184;2022-07-15T08:01:05;27.50;57.00
53053;DHT22;38934;52.690;6.184;2022-07-15T08:03:30;27.70;56.20
53053;DHT22;38934;52.690;6.184;2022-07-15T08:05:56;27.70;55.90
53053;DHT22;38934;52.690;6.184;2022-07-15T08:08:22;27.30;56.00
53053;DHT22;38934;52.690;6.184;2022-07-15T08:10:52;26.20;55.20
53053;DHT22;38934;52.690;6.184;2022-07-15T08:13:20;25.90;56.20
53053;DHT22;38934;52.690;6.184;2022-07-15T08:15:50;26.30;56.60
53053;DHT22;38934;52.690;6.184;2022-07-15T08:18:18;26.60;56.60
53053;DHT22;38934;52.690;6.184;2022-07-15T08:20:44;26.80;56.30
53053;DHT22;38934;52.690;6.184;2022-07-15T08:23:10;27.00;56.00
53053;DHT22;38934;52.690;6.184;2022-07-15T08:25:37;26.30;55.50
53053;DHT22;38934;52.690;6.184;2022-07-15T08:28:07;25.40;55.80
53053;DHT22;38934;52.690;6.184;2022-07-15T08:30:33;25.00;56.70
53053;DHT22;38934;52.690;6.184;2022-07-15T08:32:59;25.10;57.50
53053;DHT22;38934;52.690;6.184;2022-07-15T08:35:26;25.50;57.10
53053;DHT22;38934;52.690;6.184;2022-07-15T08:37:53;25.00;56.20
53053;DHT22;38934;52.690;6.184;2022-07-15T08:40:19;25.20;56.80
53053;DHT22;38934;52.690;6.184;2022-07-15T08:42:44;25.70;57.20
53053;DHT22;38934;52.690;6.184;2022-07-15T08:45:12;26.10;56.50
53053;DHT22;38934;52.690;6.184;2022-07-15T08:47:40;25.90;55.10
53053;DHT22;38934;52.690;6.184;2022-07-15T08:50:09;26.30;55.30
53053;DHT22;38934;52.690;6.184;2022-07-15T08:52:37;26.80;54.40
53053;DHT22;38934;52.690;6.184;2022-07-15T08:55:04;27.10;53.20
53053;DHT22;38934;52.690;6.184;2022-07-15T08:57:30;27.20;52.50
53053;DHT22;38934;52.690;6.184;2022-07-15T08:59:55;27.40;52.50
53053;DHT22;38934;52.690;6.184;2022-07-15T09:02:22;27.60;53.10
53053;DHT22;38934;52.690;6.184;2022-07-15T09:10:22;27.50;51.40
53053;DHT22;38934;52.690;6.184;2022-07-15T09:12:50;26.80;51.90
53053;DHT22;38934;52.690;6.184;2022-07-15T09:15:29;25.80;52.40
53053;DHT22;38934;52.690;6.184;2022-07-15T09:18:45;25.50;53.00
53053;DHT22;38934;52.690;6.184;2022-07-15T09:20:52;24.90;54.10
53053;DHT22;38934;52.690;6.184;2022-07-15T09:23:23;24.00;54.70
53053;DHT22;38934;52.690;6.184;2022-07-15T09:25:59;23.30;55.80
53053;DHT22;38934;52.690;6.184;2022-07-15T09:28:37;22.90;56.90
53053;DHT22;38934;52.690;6.184;2022-07-15T09:31:03;22.80;59.00
53053;DHT22;38934;52.690;6.184;2022-07-15T09:33:50;23.00;58.50
53053;DHT22;38934;52.690;6.184;2022-07-15T09:36:19;22.90;59.00
53053;DHT22;38934;52.690;6.184;2022-07-15T09:38:54;22.50;59.20
53053;DHT22;38934;52.690;6.184;2022-07-15T09:41:23;22.70;60.20
53053;DHT22;38934;52.690;6.184;2022-07-15T09:44:02;23.40;59.60
53053;DHT22;38934;52.690;6.184;2022-07-15T09:46:39;23.50;58.90
53053;DHT22;38934;52.690;6.184;2022-07-15T09:49:09;23.20;58.90
53053;DHT22;38934;52.690;6.184;2022-07-15T09:51:49;22.70;59.70
53053;DHT22;38934;52.690;6.184;2022-07-15T09:54:17;22.30;60.90
53053;DHT22;38934;52.690;6.184;2022-07-15T09:56:44;22.00;61.20
53053;DHT22;38934;52.690;6.184;2022-07-15T09:59:11;21.70;62.60
53053;DHT22;38934;52.690;6.184;2022-07-15T10:01:36;21.50;63.50
53053;DHT22;38934;52.690;6.184;2022-07-15T10:04:05;22.00;64.30
53053;DHT22;38934;52.690;6.184;2022-07-15T10:06:33;21.90;63.20
53053;DHT22;38934;52.690;6.184;2022-07-15T10:09:01;21.60;63.30
53053;DHT22;38934;52.690;6.184;2022-07-15T10:11:27;21.40;64.40
53053;DHT22;38934;52.690;6.184;2022-07-15T10:17:08;21.20;65.70
53053;DHT22;38934;52.690;6.184;2022-07-15T10:28:04;22.20;64.90
53053;DHT22;38934;52.690;6.184;2022-07-15T10:30:30;22.70;64.70
53053;DHT22;38934;52.690;6.184;2022-07-15T10:38:25;22.30;64.30
53053;DHT22;38934;52.690;6.184;2022-07-15T10:41:10;22.00;63.50
53053;DHT22;38934;52.690;6.184;2022-07-15T10:48:50;21.90;64.60
53053;DHT22;38934;52.690;6.184;2022-07-15T10:54:05;22.00;64.00
53053;DHT22;38934;52.690;6.184;2022-07-15T10:56:35;21.90;63.80
53053;DHT22;38934;52.690;6.184;2022-07-15T10:59:12;21.70;64.10
53053;DHT22;38934;52.690;6.184;2022-07-15T11:01:46;21.70;65.10
53053;DHT22;38934;52.690;6.184;2022-07-15T11:09:47;22.30;65.70
53053;DHT22;38934;52.690;6.184;2022-07-15T11:12:14;22.50;65.90
53053;DHT22;38934;52.690;6.184;2022-07-15T11:17:10;22.90;64.00
53053;DHT22;38934;52.690;6.184;2022-07-15T11:19:37;23.30;64.30
53053;DHT22;38934;52.690;6.184;2022-07-15T11:22:04;23.40;64.00
53053;DHT22;38934;52.690;6.184;2022-07-15T11:24:30;23.10;64.20
53053;DHT22;38934;52.690;6.184;2022-07-15T11:26:59;22.80;64.30
53053;DHT22;38934;52.690;6.184;2022-07-15T11:29:25;22.50;64.40
53053;DHT22;38934;52.690;6.184;2022-07-15T11:31:51;22.30;65.40
53053;DHT22;38934;52.690;6.184;2022-07-15T11:34:19;22.10;66.40
53053;DHT22;38934;52.690;6.184;2022-07-15T11:36:57;22.20;67.30
53053;DHT22;38934;52.690;6.184;2022-07-15T11:39:29;22.40;67.80
53053;DHT22;38934;52.690;6.184;2022-07-15T11:41:55;22.70;67.30
53053;DHT22;38934;52.690;6.184;2022-07-15T11:44:47;22.80;65.80
53053;DHT22;38934;52.690;6.184;2022-07-15T11:47:13;23.00;65.10
53053;DHT22;38934;52.690;6.184;2022-07-15T11:49:39;23.20;65.30
53053;DHT22;38934;52.690;6.184;2022-07-15T11:52:06;23.20;65.70
53053;DHT22;38934;52.690;6.184;2022-07-15T11:54:37;23.50;65.80
53053;DHT22;38934;52.690;6.184;2022-07-15T11:57:05;23.80;65.70
53053;DHT22;38934;52.690;6.184;2022-07-15T11:59:32;24.10;64.00
53053;DHT22;38934;52.690;6.184;2022-07-15T12:02:07;23.90;62.80
53053;DHT22;38934;52.690;6.184;2022-07-15T12:04:33;23.90;63.10
53053;DHT22;38934;52.690;6.184;2022-07-15T12:06:59;24.00;64.30
53053;DHT22;38934;52.690;6.184;2022-07-15T12:09:26;24.10;63.50
53053;DHT22;38934;52.690;6.184;2022-07-15T12:11:52;24.00;63.30
53053;DHT22;38934;52.690;6.184;2022-07-15T12:14:20;24.00;63.40
53053;DHT22;38934;52.690;6.184;2022-07-15T12:16:48;24.10;63.80
53053;DHT22;38934;52.690;6.184;2022-07-15T12:19:23;24.00;64.00
53053;DHT22;38934;52.690;6.184;2022-07-15T12:21:53;24.10;63.50
53053;DHT22;38934;52.690;6.184;2022-07-15T12:24:39;24.10;63.50
53053;DHT22;38934;52.690;6.184;2022-07-15T12:27:05;24.20;62.70
53053;DHT22;38934;52.690;6.184;2022-07-15T12:29:31;24.40;63.50
53053;DHT22;38934;52.690;6.184;2022-07-15T12:32:02;24.30;63.30
53053;DHT22;38934;52.690;6.184;2022-07-15T12:37:18;24.00;63.50
53053;DHT22;38934;52.690;6.184;2022-07-15T12:40:07;23.90;62.60
53053;DHT22;38934;52.690;6.184;2022-07-15T12:42:48;23.90;63.20
53053;DHT22;38934;52.690;6.184;2022-07-15T12:45:28;23.90;62.40
53053;DHT22;38934;52.690;6.184;2022-07-15T12:48:11;24.00;63.10
53053;DHT22;38934;52.690;6.184;2022-07-15T12:53:18;23.90;63.10
53053;DHT22;38934;52.690;6.184;2022-07-15T12:55:45;23.90;62.70
53053;DHT22;38934;52.690;6.184;2022-07-15T12:58:13;24.00;62.30
53053;DHT22;38934;52.690;6.184;2022-07-15T13:00:41;24.00;62.60
53053;DHT22;38934;52.690;6.184;2022-07-15T13:03:11;24.00;63.00
53053;DHT22;38934;52.690;6.184;2022-07-15T13:05:50;24.30;63.50
53053;DHT22;38934;52.690;6.184;2022-07-15T13:08:24;24.40;62.10
53053;DHT22;38934;52.690;6.184;2022-07-15T13:10:53;24.30;62.60
53053;DHT22;38934;52.690;6.184;2022-07-15T13:13:22;24.10;62.90
53053;DHT22;38934;52.690;6.184;2022-07-15T13:15:48;24.00;63.10
53053;DHT22;38934;52.690;6.184;2022-07-15T13:18:15;23.80;63.30
53053;DHT22;38934;52.690;6.184;2022-07-15T13:20:42;23.60;63.40
53053;DHT22;38934;52.690;6.184;2022-07-15T13:23:08;23.50;63.50
53053;DHT22;38934;52.690;6.184;2022-07-15T13:25:34;23.50;63.70
53053;DHT22;38934;52.690;6.184;2022-07-15T13:28:04;23.70;64.20
53053;DHT22;38934;52.690;6.184;2022-07-15T13:30:29;23.70;63.30
53053;DHT22;38934;52.690;6.184;2022-07-15T13:32:55;23.80;63.20
53053;DHT22;38934;52.690;6.184;2022-07-15T13:35:21;23.90;62.80
53053;DHT22;38934;52.690;6.184;2022-07-15T13:37:46;24.20;63.00
53053;DHT22;38934;52.690;6.184;2022-07-15T13:40:13;24.20;61.80
53053;DHT22;38934;52.690;6.184;2022-07-15T13:42:40;24.30;61.30
53053;DHT22;38934;52.690;6.184;2022-07-15T13:45:08;24.40;61.70
53053;DHT22;38934;52.690;6.184;2022-07-15T13:47:34;24.30;61.50
53053;DHT22;38934;52.690;6.184;2022-07-15T13:50:00;24.20;61.20
53053;DHT22;38934;52.690;6.184;2022-07-15T13:52:49;24.20;61.80
53053;DHT22;38934;52.690;6.184;2022-07-15T13:55:16;24.00;62.50
53053;DHT22;38934;52.690;6.184;2022-07-15T13:57:42;23.80;62.30
53053;DHT22;38934;52.690;6.184;2022-07-15T14:00:10;23.60;62.30
53053;DHT22;38934;52.690;6.184;2022-07-15T14:02:38;23.60;63.10
53053;DHT22;38934;52.690;6.184;2022-07-15T14:05:05;23.50;63.50
53053;DHT22;38934;52.690;6.184;2022-07-15T14:07:32;23.40;63.70
53053;DHT22;38934;52.690;6.184;2022-07-15T14:09:57;23.30;64.50
53053;DHT22;38934;52.690;6.184;2022-07-15T14:12:23;23.30;65.30
53053;DHT22;38934;52.690;6.184;2022-07-15T14:14:49;23.30;66.10
53053;DHT22;38934;52.690;6.184;2022-07-15T14:17:15;23.30;65.70
53053;DHT22;38934;52.690;6.184;2022-07-15T14:19:40;23.30;66.00
53053;DHT22;38934;52.690;6.184;2022-07-15T14:22:06;23.20;65.80
53053;DHT22;38934;52.690;6.184;2022-07-15T14:24:32;23.20;66.10
53053;DHT22;38934;52.690;6.184;2022-07-15T14:26:57;23.30;66.30
53053;DHT22;38934;52.690;6.184;2022-07-15T14:29:23;23.20;66.30
53053;DHT22;38934;52.690;6.184;2022-07-15T14:31:48;23.20;66.70
53053;DHT22;38934;52.690;6.184;2022-07-15T14:34:14;23.20;67.30
53053;DHT22;38934;52.690;6.184;2022-07-15T14:36:40;23.20;67.70
53053;DHT22;38934;52.690;6.184;2022-07-15T14:39:06;23.20;68.20
53053;DHT22;38934;52.690;6.184;2022-07-15T14:41:32;23.30;68.50
53053;DHT22;38934;52.690;6.184;2022-07-15T14:43:58;23.30;68.00
53053;DHT22;38934;52.690;6.184;2022-07-15T14:46:24;23.30;67.80
53053;DHT22;38934;52.690;6.184;2022-07-15T14:48:49;23.20;67.70
53053;DHT22;38934;52.690;6.184;2022-07-15T14:51:15;23.20;68.40
53053;DHT22;38934;52.690;6.184;2022-07-15T14:53:41;23.30;68.30
53053;DHT22;38934;52.690;6.184;2022-07-15T14:56:06;23.10;68.00
53053;DHT22;38934;52.690;6.184;2022-07-15T14:58:32;23.00;68.00
53053;DHT22;38934;52.690;6.184;2022-07-15T15:00:58;23.00;68.70
53053;DHT22;38934;52.690;6.184;2022-07-15T15:03:23;22.90;69.60
53053;DHT22;38934;52.690;6.184;2022-07-15T15:05:49;22.80;69.40
53053;DHT22;38934;52.690;6.184;2022-07-15T15:08:15;22.90;69.60
53053;DHT22;38934;52.690;6.184;2022-07-15T15:10:41;23.00;69.90
53053;DHT22;38934;52.690;6.184;2022-07-15T15:13:08;22.90;69.80
53053;DHT22;38934;52.690;6.184;2022-07-15T15:15:34;22.90;70.00
53053;DHT22;38934;52.690;6.184;2022-07-15T15:18:00;22.90;70.50
53053;DHT22;38934;52.690;6.184;2022-07-15T15:20:26;22.90;71.00
53053;DHT22;38934;52.690;6.184;2022-07-15T15:22:52;22.90;71.10
53053;DHT22;38934;52.690;6.184;2022-07-15T15:25:18;22.90;71.00
53053;DHT22;38934;52.690;6.184;2022-07-15T15:28:04;23.00;71.40
53053;DHT22;38934;52.690;6.184;2022-07-15T15:30:29;23.00;71.60
53053;DHT22;38934;52.690;6.184;2022-07-15T15:32:55;23.00;71.60
53053;DHT22;38934;52.690;6.184;2022-07-15T15:35:21;23.10;71.90
53053;DHT22;38934;52.690;6.184;2022-07-15T15:37:47;23.10;72.10
53053;DHT22;38934;52.690;6.184;2022-07-15T15:40:12;23.10;71.90
53053;DHT22;38934;52.690;6.184;2022-07-15T15:42:38;23.00;71.80
53053;DHT22;38934;52.690;6.184;2022-07-15T15:45:04;22.90;72.10
53053;DHT22;38934;52.690;6.184;2022-07-15T15:47:29;22.70;72.50
53053;DHT22;38934;52.690;6.184;2022-07-15T15:49:55;22.70;73.20
53053;DHT22;38934;52.690;6.184;2022-07-15T15:52:20;22.50;73.70
53053;DHT22;38934;52.690;6.184;2022-07-15T15:54:46;22.50;74.50
53053;DHT22;38934;52.690;6.184;2022-07-15T15:57:13;22.40;74.60
53053;DHT22;38934;52.690;6.184;2022-07-15T15:59:38;22.40;75.00
53053;DHT22;38934;52.690;6.184;2022-07-15T16:02:04;22.30;75.30
53053;DHT22;38934;52.690;6.184;2022-07-15T16:04:30;22.40;76.10
53053;DHT22;38934;52.690;6.184;2022-07-15T16:06:55;22.50;76.30
53053;DHT22;38934;52.690;6.184;2022-07-15T16:09:21;22.60;76.90
53053;DHT22;38934;52.690;6.184;2022-07-15T16:11:47;22.50;77.10
53053;DHT22;38934;52.690;6.184;2022-07-15T16:14:12;22.50;76.90